Main page
Satellite images 15-day forecastsClimateMarine weather Cyclones Lightning AirportsFAQ Newsletter About
Weather : Europe Africa North America South America Asia Australia-Oceania Others
Languages Contact

Dortmund, Germany

latitude: 51-31N, longitude: 007-37E, elevation: 127 m


METAR: EDLW 242150Z 16007KT CAVOK 03/01 Q1027 RMK ATIS J
TAF: EDLW 241700Z 2418/2518 VRB03KT CAVOK BECMG 2507/2510 07005KT

Time: 01:07 (00:07 UTC)

Current weather observation

The report was made 2 hours and 17 minutes ago, at 21:50 UTC
Wind 7 kt from the South/Southeast
Temperature 3°C
Humidity 87%
Pressure 1027 hPa
Visibility 10 km or more
no clouds below 1500 m and no cumulonimbus

Change units

Forecast

The report was made 7 hours and 7 minutes ago, at 17:00 UTC
Forecast valid from 24 at 18 UTC to 25 at 18 UTC
Wind 3 kt from variable directions
Visibility 10 km or more
no clouds below 1500 m and no cumulonimbus
Becoming
from 25 at 07 UTC to 25 at 10 UTC
Wind 5 kt from the East/Northeast
The information on this site is subject to a disclaimer
Weather : Europe Africa North America South America Asia Australia-Oceania Others
Satellite images 15-day forecastsClimateMarine weather Cyclones Lightning AirportsFAQ Languages Contact Newsletter About